sensor_id;sensor_type;location;lat;lon;timestamp;P1;durP1;ratioP1;P2;durP2;ratioP2
8474;SDS011;4274;52.012;8.448;2023-03-07T00:01:30;63.30;;;15.20;;
8474;SDS011;4274;52.012;8.448;2023-03-07T00:03:58;63.53;;;13.93;;
8474;SDS011;4274;52.012;8.448;2023-03-07T00:06:24;65.60;;;15.87;;
8474;SDS011;4274;52.012;8.448;2023-03-07T00:08:53;61.10;;;15.43;;
8474;SDS011;4274;52.012;8.448;2023-03-07T00:11:21;61.17;;;14.03;;
8474;SDS011;4274;52.012;8.448;2023-03-07T00:13:46;59.43;;;13.30;;
8474;SDS011;4274;52.012;8.448;2023-03-07T00:16:14;59.77;;;14.53;;
8474;SDS011;4274;52.012;8.448;2023-03-07T00:18:41;62.67;;;15.50;;
8474;SDS011;4274;52.012;8.448;2023-03-07T00:21:11;61.60;;;14.80;;
8474;SDS011;4274;52.012;8.448;2023-03-07T00:23:39;64.20;;;15.47;;
8474;SDS011;4274;52.012;8.448;2023-03-07T00:26:07;61.70;;;14.63;;
8474;SDS011;4274;52.012;8.448;2023-03-07T00:28:34;58.40;;;14.23;;
8474;SDS011;4274;52.012;8.448;2023-03-07T00:31:04;59.67;;;14.37;;
8474;SDS011;4274;52.012;8.448;2023-03-07T00:33:31;61.80;;;14.70;;
8474;SDS011;4274;52.012;8.448;2023-03-07T00:36:01;58.27;;;13.97;;
8474;SDS011;4274;52.012;8.448;2023-03-07T00:38:29;62.03;;;15.27;;
8474;SDS011;4274;52.012;8.448;2023-03-07T00:40:56;58.23;;;14.63;;
8474;SDS011;4274;52.012;8.448;2023-03-07T00:43:33;56.90;;;13.50;;
8474;SDS011;4274;52.012;8.448;2023-03-07T00:45:59;58.30;;;14.53;;
8474;SDS011;4274;52.012;8.448;2023-03-07T00:48:26;62.43;;;15.00;;
8474;SDS011;4274;52.012;8.448;2023-03-07T00:50:53;59.03;;;14.37;;
8474;SDS011;4274;52.012;8.448;2023-03-07T00:53:19;61.93;;;15.20;;
8474;SDS011;4274;52.012;8.448;2023-03-07T00:55:59;60.87;;;14.60;;
8474;SDS011;4274;52.012;8.448;2023-03-07T00:58:29;62.80;;;15.47;;
8474;SDS011;4274;52.012;8.448;2023-03-07T01:00:56;59.90;;;15.23;;
8474;SDS011;4274;52.012;8.448;2023-03-07T01:03:22;62.67;;;15.30;;
8474;SDS011;4274;52.012;8.448;2023-03-07T01:05:49;57.57;;;14.33;;
8474;SDS011;4274;52.012;8.448;2023-03-07T01:08:14;61.67;;;15.10;;
8474;SDS011;4274;52.012;8.448;2023-03-07T01:10:41;58.50;;;13.03;;
8474;SDS011;4274;52.012;8.448;2023-03-07T01:13:07;60.23;;;15.47;;
8474;SDS011;4274;52.012;8.448;2023-03-07T01:15:34;62.13;;;14.50;;
8474;SDS011;4274;52.012;8.448;2023-03-07T01:18:00;59.37;;;14.07;;
8474;SDS011;4274;52.012;8.448;2023-03-07T01:20:25;59.30;;;15.00;;
8474;SDS011;4274;52.012;8.448;2023-03-07T01:22:51;61.57;;;15.37;;
8474;SDS011;4274;52.012;8.448;2023-03-07T01:25:17;61.30;;;15.53;;
8474;SDS011;4274;52.012;8.448;2023-03-07T01:27:42;59.73;;;15.30;;
8474;SDS011;4274;52.012;8.448;2023-03-07T01:30:08;57.60;;;14.50;;
8474;SDS011;4274;52.012;8.448;2023-03-07T01:32:34;58.00;;;14.70;;
8474;SDS011;4274;52.012;8.448;2023-03-07T01:34:59;60.90;;;15.00;;
8474;SDS011;4274;52.012;8.448;2023-03-07T01:37:25;62.43;;;15.20;;
8474;SDS011;4274;52.012;8.448;2023-03-07T01:39:51;60.23;;;14.47;;
8474;SDS011;4274;52.012;8.448;2023-03-07T01:42:18;63.70;;;16.20;;
8474;SDS011;4274;52.012;8.448;2023-03-07T01:47:29;57.93;;;13.50;;
8474;SDS011;4274;52.012;8.448;2023-03-07T01:49:55;60.13;;;14.83;;
8474;SDS011;4274;52.012;8.448;2023-03-07T01:52:24;59.87;;;14.37;;
8474;SDS011;4274;52.012;8.448;2023-03-07T01:54:55;64.27;;;16.00;;
8474;SDS011;4274;52.012;8.448;2023-03-07T01:57:26;59.17;;;15.30;;
8474;SDS011;4274;52.012;8.448;2023-03-07T01:59:56;57.87;;;15.00;;
8474;SDS011;4274;52.012;8.448;2023-03-07T02:02:25;60.40;;;15.70;;
8474;SDS011;4274;52.012;8.448;2023-03-07T02:04:59;59.90;;;15.53;;
8474;SDS011;4274;52.012;8.448;2023-03-07T02:07:45;59.80;;;15.87;;
8474;SDS011;4274;52.012;8.448;2023-03-07T02:10:13;61.57;;;15.80;;
8474;SDS011;4274;52.012;8.448;2023-03-07T02:12:41;63.80;;;16.43;;
8474;SDS011;4274;52.012;8.448;2023-03-07T02:15:10;66.27;;;16.83;;
8474;SDS011;4274;52.012;8.448;2023-03-07T02:17:37;59.20;;;15.73;;
8474;SDS011;4274;52.012;8.448;2023-03-07T02:22:48;62.07;;;17.33;;
8474;SDS011;4274;52.012;8.448;2023-03-07T02:25:19;63.47;;;16.27;;
8474;SDS011;4274;52.012;8.448;2023-03-07T02:27:55;64.00;;;17.50;;
8474;SDS011;4274;52.012;8.448;2023-03-07T02:30:23;62.43;;;16.83;;
8474;SDS011;4274;52.012;8.448;2023-03-07T02:32:48;62.00;;;16.20;;
8474;SDS011;4274;52.012;8.448;2023-03-07T02:35:16;61.80;;;16.40;;
8474;SDS011;4274;52.012;8.448;2023-03-07T02:37:46;63.67;;;17.27;;
8474;SDS011;4274;52.012;8.448;2023-03-07T02:40:15;62.80;;;18.10;;
8474;SDS011;4274;52.012;8.448;2023-03-07T02:42:44;63.77;;;16.97;;
8474;SDS011;4274;52.012;8.448;2023-03-07T02:45:12;67.00;;;18.80;;
8474;SDS011;4274;52.012;8.448;2023-03-07T02:47:40;66.13;;;17.77;;
8474;SDS011;4274;52.012;8.448;2023-03-07T02:50:07;67.57;;;19.63;;
8474;SDS011;4274;52.012;8.448;2023-03-07T02:52:33;67.03;;;17.30;;
8474;SDS011;4274;52.012;8.448;2023-03-07T02:54:59;68.17;;;18.87;;
8474;SDS011;4274;52.012;8.448;2023-03-07T02:57:24;65.03;;;18.90;;
8474;SDS011;4274;52.012;8.448;2023-03-07T02:59:50;65.73;;;18.30;;
8474;SDS011;4274;52.012;8.448;2023-03-07T03:02:16;67.27;;;19.67;;
8474;SDS011;4274;52.012;8.448;2023-03-07T03:04:42;67.00;;;19.17;;
8474;SDS011;4274;52.012;8.448;2023-03-07T03:07:08;72.80;;;20.77;;
8474;SDS011;4274;52.012;8.448;2023-03-07T03:09:33;67.93;;;19.00;;
8474;SDS011;4274;52.012;8.448;2023-03-07T03:11:59;65.80;;;19.13;;
8474;SDS011;4274;52.012;8.448;2023-03-07T03:14:24;68.53;;;20.03;;
8474;SDS011;4274;52.012;8.448;2023-03-07T03:16:53;67.37;;;20.33;;
8474;SDS011;4274;52.012;8.448;2023-03-07T03:19:19;65.10;;;19.63;;
8474;SDS011;4274;52.012;8.448;2023-03-07T03:21:44;67.20;;;20.97;;
8474;SDS011;4274;52.012;8.448;2023-03-07T03:24:10;71.23;;;21.70;;
8474;SDS011;4274;52.012;8.448;2023-03-07T03:26:36;66.70;;;20.30;;
8474;SDS011;4274;52.012;8.448;2023-03-07T03:29:02;70.90;;;21.50;;
8474;SDS011;4274;52.012;8.448;2023-03-07T03:31:29;70.40;;;20.97;;
8474;SDS011;4274;52.012;8.448;2023-03-07T03:33:56;69.30;;;19.63;;
8474;SDS011;4274;52.012;8.448;2023-03-07T03:36:22;70.50;;;19.13;;
8474;SDS011;4274;52.012;8.448;2023-03-07T03:38:56;65.10;;;20.50;;
8474;SDS011;4274;52.012;8.448;2023-03-07T03:41:22;67.60;;;21.17;;
8474;SDS011;4274;52.012;8.448;2023-03-07T03:43:48;69.37;;;21.10;;
8474;SDS011;4274;52.012;8.448;2023-03-07T03:46:14;65.67;;;20.50;;
8474;SDS011;4274;52.012;8.448;2023-03-07T03:48:41;68.17;;;20.73;;
8474;SDS011;4274;52.012;8.448;2023-03-07T03:51:08;64.53;;;20.03;;
8474;SDS011;4274;52.012;8.448;2023-03-07T03:53:37;63.83;;;19.07;;
8474;SDS011;4274;52.012;8.448;2023-03-07T03:56:04;67.77;;;20.07;;
8474;SDS011;4274;52.012;8.448;2023-03-07T03:58:32;67.63;;;21.20;;
8474;SDS011;4274;52.012;8.448;2023-03-07T04:01:02;61.17;;;17.67;;
8474;SDS011;4274;52.012;8.448;2023-03-07T04:03:36;65.90;;;19.30;;
8474;SDS011;4274;52.012;8.448;2023-03-07T04:06:03;67.00;;;20.43;;
8474;SDS011;4274;52.012;8.448;2023-03-07T04:08:31;66.67;;;20.77;;
8474;SDS011;4274;52.012;8.448;2023-03-07T04:10:58;66.53;;;20.23;;
8474;SDS011;4274;52.012;8.448;2023-03-07T04:13:24;69.37;;;21.70;;
8474;SDS011;4274;52.012;8.448;2023-03-07T04:15:50;71.60;;;21.07;;
8474;SDS011;4274;52.012;8.448;2023-03-07T04:18:19;75.47;;;23.27;;
8474;SDS011;4274;52.012;8.448;2023-03-07T04:20:46;73.67;;;22.37;;
8474;SDS011;4274;52.012;8.448;2023-03-07T04:23:13;76.63;;;22.87;;
8474;SDS011;4274;52.012;8.448;2023-03-07T04:25:39;76.17;;;23.10;;
8474;SDS011;4274;52.012;8.448;2023-03-07T04:28:05;70.80;;;22.87;;
8474;SDS011;4274;52.012;8.448;2023-03-07T04:30:30;72.83;;;23.73;;
8474;SDS011;4274;52.012;8.448;2023-03-07T04:32:56;72.53;;;23.73;;
8474;SDS011;4274;52.012;8.448;2023-03-07T04:35:21;79.30;;;23.70;;
8474;SDS011;4274;52.012;8.448;2023-03-07T04:37:47;72.70;;;22.60;;
8474;SDS011;4274;52.012;8.448;2023-03-07T04:40:14;78.33;;;24.20;;
8474;SDS011;4274;52.012;8.448;2023-03-07T04:42:40;71.40;;;22.87;;
8474;SDS011;4274;52.012;8.448;2023-03-07T04:45:06;71.40;;;23.23;;
8474;SDS011;4274;52.012;8.448;2023-03-07T04:47:32;69.87;;;22.80;;
8474;SDS011;4274;52.012;8.448;2023-03-07T04:49:57;71.57;;;22.10;;
8474;SDS011;4274;52.012;8.448;2023-03-07T04:52:23;64.90;;;19.20;;
8474;SDS011;4274;52.012;8.448;2023-03-07T04:54:48;47.90;;;9.50;;
8474;SDS011;4274;52.012;8.448;2023-03-07T04:57:14;46.30;;;7.90;;
8474;SDS011;4274;52.012;8.448;2023-03-07T04:59:40;44.60;;;7.87;;
8474;SDS011;4274;52.012;8.448;2023-03-07T05:02:06;47.17;;;7.40;;
8474;SDS011;4274;52.012;8.448;2023-03-07T05:04:32;50.93;;;10.70;;
8474;SDS011;4274;52.012;8.448;2023-03-07T05:06:58;53.63;;;12.07;;
8474;SDS011;4274;52.012;8.448;2023-03-07T05:09:24;55.90;;;13.07;;
8474;SDS011;4274;52.012;8.448;2023-03-07T05:11:49;57.07;;;15.00;;
8474;SDS011;4274;52.012;8.448;2023-03-07T05:14:15;61.67;;;15.40;;
8474;SDS011;4274;52.012;8.448;2023-03-07T05:16:40;51.37;;;10.77;;
8474;SDS011;4274;52.012;8.448;2023-03-07T05:19:07;51.70;;;9.20;;
8474;SDS011;4274;52.012;8.448;2023-03-07T05:21:33;48.63;;;8.90;;
8474;SDS011;4274;52.012;8.448;2023-03-07T05:23:59;47.80;;;8.47;;
8474;SDS011;4274;52.012;8.448;2023-03-07T05:26:24;52.70;;;7.53;;
8474;SDS011;4274;52.012;8.448;2023-03-07T05:28:50;46.60;;;7.20;;
8474;SDS011;4274;52.012;8.448;2023-03-07T05:31:15;47.00;;;8.40;;
8474;SDS011;4274;52.012;8.448;2023-03-07T05:33:41;45.17;;;7.03;;
8474;SDS011;4274;52.012;8.448;2023-03-07T05:36:07;46.37;;;5.97;;
8474;SDS011;4274;52.012;8.448;2023-03-07T05:38:33;44.00;;;7.20;;
8474;SDS011;4274;52.012;8.448;2023-03-07T05:40:58;45.60;;;6.77;;
8474;SDS011;4274;52.012;8.448;2023-03-07T05:43:24;49.93;;;6.00;;
8474;SDS011;4274;52.012;8.448;2023-03-07T05:45:50;43.30;;;5.93;;
8474;SDS011;4274;52.012;8.448;2023-03-07T05:48:15;42.77;;;5.83;;
8474;SDS011;4274;52.012;8.448;2023-03-07T05:50:41;44.77;;;5.90;;
8474;SDS011;4274;52.012;8.448;2023-03-07T05:53:07;44.50;;;5.77;;
8474;SDS011;4274;52.012;8.448;2023-03-07T05:55:33;43.83;;;5.60;;
8474;SDS011;4274;52.012;8.448;2023-03-07T05:57:58;45.60;;;6.37;;
8474;SDS011;4274;52.012;8.448;2023-03-07T06:00:24;41.63;;;5.30;;
8474;SDS011;4274;52.012;8.448;2023-03-07T06:02:50;44.70;;;7.07;;
8474;SDS011;4274;52.012;8.448;2023-03-07T06:05:16;44.73;;;5.33;;
8474;SDS011;4274;52.012;8.448;2023-03-07T06:07:41;44.20;;;5.00;;
8474;SDS011;4274;52.012;8.448;2023-03-07T06:10:08;44.10;;;5.23;;
8474;SDS011;4274;52.012;8.448;2023-03-07T06:12:35;44.03;;;6.07;;
8474;SDS011;4274;52.012;8.448;2023-03-07T06:15:00;48.10;;;7.47;;
8474;SDS011;4274;52.012;8.448;2023-03-07T06:17:26;43.80;;;6.53;;
8474;SDS011;4274;52.012;8.448;2023-03-07T06:19:52;47.63;;;7.07;;
8474;SDS011;4274;52.012;8.448;2023-03-07T06:22:17;43.93;;;6.73;;
8474;SDS011;4274;52.012;8.448;2023-03-07T06:24:43;44.60;;;6.10;;
8474;SDS011;4274;52.012;8.448;2023-03-07T06:27:08;44.60;;;6.97;;
8474;SDS011;4274;52.012;8.448;2023-03-07T06:29:34;46.20;;;6.47;;
8474;SDS011;4274;52.012;8.448;2023-03-07T06:32:00;47.23;;;6.13;;
8474;SDS011;4274;52.012;8.448;2023-03-07T06:34:26;44.00;;;6.00;;
8474;SDS011;4274;52.012;8.448;2023-03-07T06:36:51;47.17;;;6.20;;
8474;SDS011;4274;52.012;8.448;2023-03-07T06:39:17;45.13;;;6.27;;
8474;SDS011;4274;52.012;8.448;2023-03-07T06:41:45;48.57;;;6.47;;
8474;SDS011;4274;52.012;8.448;2023-03-07T06:44:12;45.73;;;6.30;;
8474;SDS011;4274;52.012;8.448;2023-03-07T06:46:38;44.70;;;6.70;;
8474;SDS011;4274;52.012;8.448;2023-03-07T06:49:03;44.53;;;6.37;;
8474;SDS011;4274;52.012;8.448;2023-03-07T06:51:29;41.97;;;5.30;;
8474;SDS011;4274;52.012;8.448;2023-03-07T06:53:55;44.43;;;4.90;;
8474;SDS011;4274;52.012;8.448;2023-03-07T06:56:20;39.73;;;3.83;;
8474;SDS011;4274;52.012;8.448;2023-03-07T06:58:46;43.73;;;4.90;;
8474;SDS011;4274;52.012;8.448;2023-03-07T07:01:18;42.27;;;4.80;;
8474;SDS011;4274;52.012;8.448;2023-03-07T07:03:44;40.73;;;4.47;;
8474;SDS011;4274;52.012;8.448;2023-03-07T07:06:10;42.83;;;4.60;;
8474;SDS011;4274;52.012;8.448;2023-03-07T07:08:36;44.30;;;4.87;;
8474;SDS011;4274;52.012;8.448;2023-03-07T07:11:01;40.60;;;4.90;;
8474;SDS011;4274;52.012;8.448;2023-03-07T07:13:27;47.20;;;7.10;;
8474;SDS011;4274;52.012;8.448;2023-03-07T07:15:53;43.60;;;6.30;;
8474;SDS011;4274;52.012;8.448;2023-03-07T07:18:18;46.83;;;6.17;;
8474;SDS011;4274;52.012;8.448;2023-03-07T07:20:44;45.70;;;5.77;;
8474;SDS011;4274;52.012;8.448;2023-03-07T07:23:09;45.30;;;5.70;;
8474;SDS011;4274;52.012;8.448;2023-03-07T07:25:36;48.97;;;7.07;;
8474;SDS011;4274;52.012;8.448;2023-03-07T07:28:02;47.73;;;7.43;;
8474;SDS011;4274;52.012;8.448;2023-03-07T07:30:28;47.07;;;8.10;;
8474;SDS011;4274;52.012;8.448;2023-03-07T07:32:54;46.00;;;7.13;;
8474;SDS011;4274;52.012;8.448;2023-03-07T07:35:19;43.80;;;6.97;;
8474;SDS011;4274;52.012;8.448;2023-03-07T07:37:45;45.07;;;6.30;;
8474;SDS011;4274;52.012;8.448;2023-03-07T07:40:10;43.93;;;7.53;;
8474;SDS011;4274;52.012;8.448;2023-03-07T07:42:36;45.43;;;7.47;;
8474;SDS011;4274;52.012;8.448;2023-03-07T07:45:02;49.25;;;7.32;;
8474;SDS011;4274;52.012;8.448;2023-03-07T07:47:29;44.77;;;7.60;;
8474;SDS011;4274;52.012;8.448;2023-03-07T07:49:54;44.50;;;7.90;;
8474;SDS011;4274;52.012;8.448;2023-03-07T07:52:20;47.47;;;8.40;;
8474;SDS011;4274;52.012;8.448;2023-03-07T07:54:45;46.97;;;8.43;;
8474;SDS011;4274;52.012;8.448;2023-03-07T07:57:11;44.90;;;7.77;;
8474;SDS011;4274;52.012;8.448;2023-03-07T07:59:36;46.70;;;7.87;;
8474;SDS011;4274;52.012;8.448;2023-03-07T08:02:02;45.07;;;6.80;;
8474;SDS011;4274;52.012;8.448;2023-03-07T08:04:27;43.30;;;5.63;;
8474;SDS011;4274;52.012;8.448;2023-03-07T08:06:53;42.30;;;5.80;;
8474;SDS011;4274;52.012;8.448;2023-03-07T08:09:19;44.43;;;6.80;;
8474;SDS011;4274;52.012;8.448;2023-03-07T08:11:44;41.50;;;5.30;;
8474;SDS011;4274;52.012;8.448;2023-03-07T08:14:10;41.17;;;5.07;;
8474;SDS011;4274;52.012;8.448;2023-03-07T08:16:36;41.00;;;4.67;;
8474;SDS011;4274;52.012;8.448;2023-03-07T08:19:01;40.43;;;4.50;;
8474;SDS011;4274;52.012;8.448;2023-03-07T08:21:27;40.80;;;4.60;;
8474;SDS011;4274;52.012;8.448;2023-03-07T08:23:53;40.80;;;4.67;;
8474;SDS011;4274;52.012;8.448;2023-03-07T08:26:20;42.00;;;4.30;;
8474;SDS011;4274;52.012;8.448;2023-03-07T08:28:46;40.40;;;4.30;;
8474;SDS011;4274;52.012;8.448;2023-03-07T08:31:15;41.60;;;4.70;;
8474;SDS011;4274;52.012;8.448;2023-03-07T08:33:44;40.30;;;4.70;;
8474;SDS011;4274;52.012;8.448;2023-03-07T08:36:12;40.23;;;4.17;;
8474;SDS011;4274;52.012;8.448;2023-03-07T08:38:38;43.00;;;3.90;;
8474;SDS011;4274;52.012;8.448;2023-03-07T08:41:05;37.85;;;4.28;;
8474;SDS011;4274;52.012;8.448;2023-03-07T08:43:32;41.70;;;4.60;;
8474;SDS011;4274;52.012;8.448;2023-03-07T08:46:00;41.03;;;3.90;;
8474;SDS011;4274;52.012;8.448;2023-03-07T08:48:26;44.53;;;3.57;;
8474;SDS011;4274;52.012;8.448;2023-03-07T08:50:52;40.85;;;3.50;;
8474;SDS011;4274;52.012;8.448;2023-03-07T08:53:18;42.03;;;4.00;;
8474;SDS011;4274;52.012;8.448;2023-03-07T08:55:44;42.13;;;4.67;;
8474;SDS011;4274;52.012;8.448;2023-03-07T08:58:11;38.97;;;3.57;;
8474;SDS011;4274;52.012;8.448;2023-03-07T09:00:37;38.60;;;3.27;;
8474;SDS011;4274;52.012;8.448;2023-03-07T09:03:03;42.63;;;3.70;;
8474;SDS011;4274;52.012;8.448;2023-03-07T09:05:29;41.07;;;3.20;;
8474;SDS011;4274;52.012;8.448;2023-03-07T09:07:55;39.07;;;3.03;;
8474;SDS011;4274;52.012;8.448;2023-03-07T09:10:22;40.20;;;3.70;;
8474;SDS011;4274;52.012;8.448;2023-03-07T09:12:48;42.10;;;3.70;;
8474;SDS011;4274;52.012;8.448;2023-03-07T09:15:19;40.40;;;3.87;;
8474;SDS011;4274;52.012;8.448;2023-03-07T09:17:45;38.33;;;3.47;;
8474;SDS011;4274;52.012;8.448;2023-03-07T09:20:11;38.97;;;3.40;;
8474;SDS011;4274;52.012;8.448;2023-03-07T09:22:37;38.97;;;3.30;;
8474;SDS011;4274;52.012;8.448;2023-03-07T09:25:03;38.63;;;3.30;;
8474;SDS011;4274;52.012;8.448;2023-03-07T09:27:29;42.47;;;3.57;;
8474;SDS011;4274;52.012;8.448;2023-03-07T09:29:55;39.93;;;4.33;;
8474;SDS011;4274;52.012;8.448;2023-03-07T09:32:20;39.00;;;3.40;;
8474;SDS011;4274;52.012;8.448;2023-03-07T09:34:46;40.20;;;3.40;;
8474;SDS011;4274;52.012;8.448;2023-03-07T09:37:11;39.00;;;3.70;;
8474;SDS011;4274;52.012;8.448;2023-03-07T09:39:37;38.73;;;3.17;;
8474;SDS011;4274;52.012;8.448;2023-03-07T09:49:49;41.10;;;4.90;;
8474;SDS011;4274;52.012;8.448;2023-03-07T09:52:15;44.57;;;4.97;;
8474;SDS011;4274;52.012;8.448;2023-03-07T09:54:44;39.60;;;3.50;;
8474;SDS011;4274;52.012;8.448;2023-03-07T09:57:25;39.40;;;4.00;;
8474;SDS011;4274;52.012;8.448;2023-03-07T10:00:05;38.80;;;3.50;;
8474;SDS011;4274;52.012;8.448;2023-03-07T10:07:56;40.37;;;3.90;;
8474;SDS011;4274;52.012;8.448;2023-03-07T10:10:22;41.60;;;3.93;;
8474;SDS011;4274;52.012;8.448;2023-03-07T10:20:52;39.47;;;4.13;;
8474;SDS011;4274;52.012;8.448;2023-03-07T10:28:48;38.60;;;3.20;;
8474;SDS011;4274;52.012;8.448;2023-03-07T10:31:22;39.57;;;4.00;;
8474;SDS011;4274;52.012;8.448;2023-03-07T10:33:58;39.17;;;3.73;;
8474;SDS011;4274;52.012;8.448;2023-03-07T10:36:42;39.90;;;3.73;;
8474;SDS011;4274;52.012;8.448;2023-03-07T10:42:10;41.27;;;4.90;;
8474;SDS011;4274;52.012;8.448;2023-03-07T10:44:37;44.13;;;5.87;;
8474;SDS011;4274;52.012;8.448;2023-03-07T10:47:04;41.80;;;3.97;;
8474;SDS011;4274;52.012;8.448;2023-03-07T10:51:58;39.60;;;3.90;;
8474;SDS011;4274;52.012;8.448;2023-03-07T10:54:37;38.90;;;3.60;;
8474;SDS011;4274;52.012;8.448;2023-03-07T10:57:04;39.10;;;3.73;;
8474;SDS011;4274;52.012;8.448;2023-03-07T10:59:31;39.87;;;4.20;;
8474;SDS011;4274;52.012;8.448;2023-03-07T11:01:58;40.03;;;4.23;;
8474;SDS011;4274;52.012;8.448;2023-03-07T11:04:26;38.23;;;3.70;;
8474;SDS011;4274;52.012;8.448;2023-03-07T11:11:58;38.90;;;3.70;;
8474;SDS011;4274;52.012;8.448;2023-03-07T11:14:45;41.00;;;4.47;;
8474;SDS011;4274;52.012;8.448;2023-03-07T11:17:19;40.30;;;4.80;;
8474;SDS011;4274;52.012;8.448;2023-03-07T11:19:52;40.10;;;4.00;;
8474;SDS011;4274;52.012;8.448;2023-03-07T11:27:23;40.67;;;4.80;;
8474;SDS011;4274;52.012;8.448;2023-03-07T11:30:18;40.53;;;5.33;;
8474;SDS011;4274;52.012;8.448;2023-03-07T11:32:48;40.87;;;4.73;;
8474;SDS011;4274;52.012;8.448;2023-03-07T11:35:39;40.63;;;4.67;;
8474;SDS011;4274;52.012;8.448;2023-03-07T11:38:35;44.70;;;4.93;;
8474;SDS011;4274;52.012;8.448;2023-03-07T11:41:27;42.63;;;5.03;;
8474;SDS011;4274;52.012;8.448;2023-03-07T11:44:24;41.90;;;4.80;;
8474;SDS011;4274;52.012;8.448;2023-03-07T11:47:28;41.53;;;4.70;;
8474;SDS011;4274;52.012;8.448;2023-03-07T11:50:21;39.97;;;4.20;;
8474;SDS011;4274;52.012;8.448;2023-03-07T11:52:57;42.37;;;5.33;;
8474;SDS011;4274;52.012;8.448;2023-03-07T12:12:54;40.00;;;4.30;;
8474;SDS011;4274;52.012;8.448;2023-03-07T12:16:07;40.77;;;5.20;;
8474;SDS011;4274;52.012;8.448;2023-03-07T12:24:17;40.00;;;4.23;;
8474;SDS011;4274;52.012;8.448;2023-03-07T12:29:48;43.60;;;6.40;;
8474;SDS011;4274;52.012;8.448;2023-03-07T12:32:22;45.80;;;6.30;;
8474;SDS011;4274;52.012;8.448;2023-03-07T12:34:52;46.27;;;5.60;;
8474;SDS011;4274;52.012;8.448;2023-03-07T12:40:19;40.57;;;4.20;;
8474;SDS011;4274;52.012;8.448;2023-03-07T12:45:20;41.73;;;3.50;;
8474;SDS011;4274;52.012;8.448;2023-03-07T12:47:56;40.77;;;4.40;;
8474;SDS011;4274;52.012;8.448;2023-03-07T12:56:39;42.20;;;5.20;;
8474;SDS011;4274;52.012;8.448;2023-03-07T12:59:12;43.40;;;3.60;;
8474;SDS011;4274;52.012;8.448;2023-03-07T13:01:51;39.97;;;4.27;;
8474;SDS011;4274;52.012;8.448;2023-03-07T13:04:27;40.30;;;3.73;;
8474;SDS011;4274;52.012;8.448;2023-03-07T13:09:40;39.50;;;4.13;;
8474;SDS011;4274;52.012;8.448;2023-03-07T13:14:45;41.10;;;3.70;;
8474;SDS011;4274;52.012;8.448;2023-03-07T13:17:12;40.27;;;4.30;;
8474;SDS011;4274;52.012;8.448;2023-03-07T13:20:01;39.20;;;3.60;;
8474;SDS011;4274;52.012;8.448;2023-03-07T13:25:33;39.93;;;4.20;;
8474;SDS011;4274;52.012;8.448;2023-03-07T13:30:21;40.40;;;4.33;;
8474;SDS011;4274;52.012;8.448;2023-03-07T13:37:56;47.60;;;6.90;;
8474;SDS011;4274;52.012;8.448;2023-03-07T13:45:54;41.50;;;5.33;;
8474;SDS011;4274;52.012;8.448;2023-03-07T13:55:53;43.83;;;5.40;;
8474;SDS011;4274;52.012;8.448;2023-03-07T13:58:59;42.97;;;6.20;;
8474;SDS011;4274;52.012;8.448;2023-03-07T14:01:42;42.57;;;5.07;;
8474;SDS011;4274;52.012;8.448;2023-03-07T14:06:42;44.30;;;5.00;;
8474;SDS011;4274;52.012;8.448;2023-03-07T14:09:12;40.17;;;4.60;;
8474;SDS011;4274;52.012;8.448;2023-03-07T14:11:54;44.40;;;5.60;;
8474;SDS011;4274;52.012;8.448;2023-03-07T14:20:22;41.37;;;5.00;;
8474;SDS011;4274;52.012;8.448;2023-03-07T14:25:37;41.53;;;5.07;;
8474;SDS011;4274;52.012;8.448;2023-03-07T14:28:20;41.23;;;4.73;;
8474;SDS011;4274;52.012;8.448;2023-03-07T14:30:51;42.70;;;4.60;;
8474;SDS011;4274;52.012;8.448;2023-03-07T14:33:35;41.23;;;4.27;;
8474;SDS011;4274;52.012;8.448;2023-03-07T14:36:03;44.60;;;4.30;;
8474;SDS011;4274;52.012;8.448;2023-03-07T14:38:59;41.70;;;3.67;;
8474;SDS011;4274;52.012;8.448;2023-03-07T14:52:19;39.90;;;4.30;;
8474;SDS011;4274;52.012;8.448;2023-03-07T14:54:47;39.40;;;3.83;;
8474;SDS011;4274;52.012;8.448;2023-03-07T14:57:30;39.13;;;3.50;;
8474;SDS011;4274;52.012;8.448;2023-03-07T15:02:51;39.77;;;4.07;;
8474;SDS011;4274;52.012;8.448;2023-03-07T15:05:52;40.13;;;3.60;;
8474;SDS011;4274;52.012;8.448;2023-03-07T15:11:28;39.27;;;3.60;;
8474;SDS011;4274;52.012;8.448;2023-03-07T15:13:47;44.23;;;3.80;;
8474;SDS011;4274;52.012;8.448;2023-03-07T15:16:22;40.67;;;4.90;;
8474;SDS011;4274;52.012;8.448;2023-03-07T15:18:51;41.40;;;4.80;;
8474;SDS011;4274;52.012;8.448;2023-03-07T15:21:37;40.50;;;4.60;;
8474;SDS011;4274;52.012;8.448;2023-03-07T15:24:15;41.30;;;4.33;;
8474;SDS011;4274;52.012;8.448;2023-03-07T15:26:49;41.37;;;4.27;;
8474;SDS011;4274;52.012;8.448;2023-03-07T15:29:17;40.40;;;4.50;;
8474;SDS011;4274;52.012;8.448;2023-03-07T15:31:48;42.40;;;3.80;;
8474;SDS011;4274;52.012;8.448;2023-03-07T15:34:37;38.97;;;3.43;;
8474;SDS011;4274;52.012;8.448;2023-03-07T15:37:23;40.33;;;3.67;;
8474;SDS011;4274;52.012;8.448;2023-03-07T15:40:38;39.60;;;3.33;;
8474;SDS011;4274;52.012;8.448;2023-03-07T15:42:53;40.07;;;2.80;;
8474;SDS011;4274;52.012;8.448;2023-03-07T15:45:30;39.30;;;2.90;;
8474;SDS011;4274;52.012;8.448;2023-03-07T15:48:08;39.63;;;3.00;;
8474;SDS011;4274;52.012;8.448;2023-03-07T15:50:40;37.87;;;3.07;;
8474;SDS011;4274;52.012;8.448;2023-03-07T15:53:06;39.47;;;3.00;;
8474;SDS011;4274;52.012;8.448;2023-03-07T15:55:34;37.80;;;2.80;;
8474;SDS011;4274;52.012;8.448;2023-03-07T15:58:03;40.50;;;2.87;;
8474;SDS011;4274;52.012;8.448;2023-03-07T16:00:35;37.60;;;2.90;;
8474;SDS011;4274;52.012;8.448;2023-03-07T16:05:49;39.30;;;3.53;;
8474;SDS011;4274;52.012;8.448;2023-03-07T16:08:15;41.47;;;3.53;;
8474;SDS011;4274;52.012;8.448;2023-03-07T16:10:44;39.17;;;3.10;;
8474;SDS011;4274;52.012;8.448;2023-03-07T16:13:14;39.07;;;2.90;;
8474;SDS011;4274;52.012;8.448;2023-03-07T16:15:42;40.00;;;3.50;;
8474;SDS011;4274;52.012;8.448;2023-03-07T16:18:09;38.90;;;3.10;;
8474;SDS011;4274;52.012;8.448;2023-03-07T16:20:47;37.57;;;3.00;;
8474;SDS011;4274;52.012;8.448;2023-03-07T16:23:12;42.77;;;4.30;;
8474;SDS011;4274;52.012;8.448;2023-03-07T16:25:38;40.07;;;3.20;;
8474;SDS011;4274;52.012;8.448;2023-03-07T16:28:04;37.10;;;2.73;;
8474;SDS011;4274;52.012;8.448;2023-03-07T16:30:31;39.23;;;3.13;;
8474;SDS011;4274;52.012;8.448;2023-03-07T16:32:57;41.20;;;2.90;;
8474;SDS011;4274;52.012;8.448;2023-03-07T16:35:24;38.97;;;3.50;;
8474;SDS011;4274;52.012;8.448;2023-03-07T16:37:51;42.30;;;4.73;;
8474;SDS011;4274;52.012;8.448;2023-03-07T16:40:18;42.40;;;3.70;;
8474;SDS011;4274;52.012;8.448;2023-03-07T16:42:45;38.43;;;3.60;;
8474;SDS011;4274;52.012;8.448;2023-03-07T16:47:51;40.43;;;4.30;;
8474;SDS011;4274;52.012;8.448;2023-03-07T16:50:19;43.40;;;4.30;;
8474;SDS011;4274;52.012;8.448;2023-03-07T16:52:56;39.93;;;3.33;;
8474;SDS011;4274;52.012;8.448;2023-03-07T16:55:22;43.03;;;4.63;;
8474;SDS011;4274;52.012;8.448;2023-03-07T16:57:49;47.60;;;3.93;;
8474;SDS011;4274;52.012;8.448;2023-03-07T17:00:18;41.40;;;4.30;;
8474;SDS011;4274;52.012;8.448;2023-03-07T17:02:46;42.10;;;4.50;;
8474;SDS011;4274;52.012;8.448;2023-03-07T17:05:16;42.33;;;4.53;;
8474;SDS011;4274;52.012;8.448;2023-03-07T17:07:49;43.13;;;3.75;;
8474;SDS011;4274;52.012;8.448;2023-03-07T17:10:15;39.13;;;4.27;;
8474;SDS011;4274;52.012;8.448;2023-03-07T17:12:41;41.13;;;3.83;;
8474;SDS011;4274;52.012;8.448;2023-03-07T17:15:09;41.80;;;4.40;;
8474;SDS011;4274;52.012;8.448;2023-03-07T17:17:37;39.63;;;3.80;;
8474;SDS011;4274;52.012;8.448;2023-03-07T17:20:03;45.73;;;5.27;;
8474;SDS011;4274;52.012;8.448;2023-03-07T17:22:32;40.73;;;5.60;;
8474;SDS011;4274;52.012;8.448;2023-03-07T17:24:58;40.20;;;4.27;;
8474;SDS011;4274;52.012;8.448;2023-03-07T17:27:25;42.30;;;5.37;;
8474;SDS011;4274;52.012;8.448;2023-03-07T17:29:52;39.70;;;5.10;;
8474;SDS011;4274;52.012;8.448;2023-03-07T17:32:19;42.97;;;5.10;;
8474;SDS011;4274;52.012;8.448;2023-03-07T17:34:45;41.43;;;5.10;;
8474;SDS011;4274;52.012;8.448;2023-03-07T17:37:11;45.73;;;7.73;;